sensor_id;sensor_type;location;lat;lon;timestamp;pressure;altitude;pressure_sealevel;temperature;humidity
26083;BME280;13848;49.018;12.078;2022-12-07T00:00:32;97598.00;;;3.63;80.25
26083;BME280;13848;49.018;12.078;2022-12-07T00:02:58;97598.72;;;3.57;80.23
26083;BME280;13848;49.018;12.078;2022-12-07T00:05:24;97596.25;;;3.55;80.12
26083;BME280;13848;49.018;12.078;2022-12-07T00:07:50;97592.47;;;3.50;80.54
26083;BME280;13848;49.018;12.078;2022-12-07T00:10:16;97591.16;;;3.45;80.15
26083;BME280;13848;49.018;12.078;2022-12-07T00:12:43;97594.13;;;3.51;80.12
26083;BME280;13848;49.018;12.078;2022-12-07T00:15:10;97584.88;;;3.61;80.48
26083;BME280;13848;49.018;12.078;2022-12-07T00:17:36;97582.75;;;3.57;80.14
26083;BME280;13848;49.018;12.078;2022-12-07T00:20:02;97580.16;;;3.49;79.76
26083;BME280;13848;49.018;12.078;2022-12-07T00:22:28;97585.53;;;3.40;80.23
26083;BME280;13848;49.018;12.078;2022-12-07T00:24:54;97569.84;;;3.45;79.83
26083;BME280;13848;49.018;12.078;2022-12-07T00:27:20;97576.94;;;3.53;80.04
26083;BME280;13848;49.018;12.078;2022-12-07T00:29:47;97576.59;;;3.56;79.95
26083;BME280;13848;49.018;12.078;2022-12-07T00:32:13;97579.97;;;3.50;79.64
26083;BME280;13848;49.018;12.078;2022-12-07T00:34:39;97577.31;;;3.50;79.79
26083;BME280;13848;49.018;12.078;2022-12-07T00:37:05;97580.00;;;3.42;80.06
26083;BME280;13848;49.018;12.078;2022-12-07T00:39:31;97583.16;;;3.45;79.67
26083;BME280;13848;49.018;12.078;2022-12-07T00:41:57;97575.16;;;3.45;79.70
26083;BME280;13848;49.018;12.078;2022-12-07T00:44:23;97574.56;;;3.35;79.84
26083;BME280;13848;49.018;12.078;2022-12-07T00:46:51;97565.94;;;3.33;80.25
26083;BME280;13848;49.018;12.078;2022-12-07T00:49:17;97572.94;;;3.34;79.75
26083;BME280;13848;49.018;12.078;2022-12-07T00:51:43;97579.56;;;3.38;80.02
26083;BME280;13848;49.018;12.078;2022-12-07T00:54:09;97574.22;;;3.38;80.09
26083;BME280;13848;49.018;12.078;2022-12-07T00:56:35;97573.50;;;3.44;79.62
26083;BME280;13848;49.018;12.078;2022-12-07T00:59:03;97574.56;;;3.35;79.90
26083;BME280;13848;49.018;12.078;2022-12-07T01:01:31;97575.72;;;3.18;80.38
26083;BME280;13848;49.018;12.078;2022-12-07T01:03:58;97577.81;;;3.31;80.18
26083;BME280;13848;49.018;12.078;2022-12-07T01:06:25;97573.31;;;3.31;80.05
26083;BME280;13848;49.018;12.078;2022-12-07T01:08:52;97575.78;;;3.33;79.67
26083;BME280;13848;49.018;12.078;2022-12-07T01:11:20;97576.50;;;3.27;79.60
26083;BME280;13848;49.018;12.078;2022-12-07T01:13:46;97577.63;;;3.32;80.12
26083;BME280;13848;49.018;12.078;2022-12-07T01:16:14;97576.94;;;3.30;79.71
26083;BME280;13848;49.018;12.078;2022-12-07T01:18:41;97589.81;;;3.50;83.79
26083;BME280;13848;49.018;12.078;2022-12-07T01:21:12;97583.38;;;3.96;82.96
26083;BME280;13848;49.018;12.078;2022-12-07T01:23:39;97587.19;;;3.79;79.85
26083;BME280;13848;49.018;12.078;2022-12-07T01:26:06;97587.19;;;3.41;78.91
26083;BME280;13848;49.018;12.078;2022-12-07T01:28:33;97583.25;;;3.37;80.03
26083;BME280;13848;49.018;12.078;2022-12-07T01:31:07;97584.91;;;3.38;79.71
26083;BME280;13848;49.018;12.078;2022-12-07T01:33:35;97572.94;;;3.34;79.88
26083;BME280;13848;49.018;12.078;2022-12-07T01:36:02;97577.50;;;3.26;80.04
26083;BME280;13848;49.018;12.078;2022-12-07T01:38:31;97576.50;;;3.27;79.37
26083;BME280;13848;49.018;12.078;2022-12-07T01:40:57;97575.56;;;3.19;79.27
26083;BME280;13848;49.018;12.078;2022-12-07T01:43:25;97569.63;;;3.09;78.84
26083;BME280;13848;49.018;12.078;2022-12-07T01:45:52;97575.38;;;3.21;78.66
26083;BME280;13848;49.018;12.078;2022-12-07T01:48:20;97574.72;;;3.19;78.49
26083;BME280;13848;49.018;12.078;2022-12-07T01:50:50;97580.47;;;3.31;77.96
26083;BME280;13848;49.018;12.078;2022-12-07T01:53:17;97575.88;;;3.39;78.63
26083;BME280;13848;49.018;12.078;2022-12-07T01:55:48;97575.59;;;3.34;78.25
26083;BME280;13848;49.018;12.078;2022-12-07T01:58:16;97577.84;;;3.23;78.28
26083;BME280;13848;49.018;12.078;2022-12-07T02:00:42;97575.41;;;3.13;78.30
26083;BME280;13848;49.018;12.078;2022-12-07T02:03:12;97568.19;;;3.22;78.29
26083;BME280;13848;49.018;12.078;2022-12-07T02:05:40;97583.25;;;3.37;78.27
26083;BME280;13848;49.018;12.078;2022-12-07T02:08:07;97585.81;;;3.45;78.33
26083;BME280;13848;49.018;12.078;2022-12-07T02:10:33;97578.25;;;3.34;78.05
26083;BME280;13848;49.018;12.078;2022-12-07T02:13:04;97578.56;;;3.39;78.19
26083;BME280;13848;49.018;12.078;2022-12-07T02:15:41;97578.25;;;3.34;78.24
26083;BME280;13848;49.018;12.078;2022-12-07T02:18:16;97573.03;;;3.18;77.76
26083;BME280;13848;49.018;12.078;2022-12-07T02:20:52;97575.47;;;3.05;78.32
26083;BME280;13848;49.018;12.078;2022-12-07T02:23:48;97574.28;;;3.07;78.35
26083;BME280;13848;49.018;12.078;2022-12-07T02:29:24;97567.84;;;3.02;78.70
26083;BME280;13848;49.018;12.078;2022-12-07T02:31:54;97569.44;;;3.11;78.51
26083;BME280;13848;49.018;12.078;2022-12-07T02:34:28;97564.81;;;3.05;78.62
26083;BME280;13848;49.018;12.078;2022-12-07T02:37:01;97566.59;;;3.12;78.30
26083;BME280;13848;49.018;12.078;2022-12-07T02:39:34;97565.00;;;3.03;78.76
26083;BME280;13848;49.018;12.078;2022-12-07T02:42:09;97571.88;;;2.98;78.97
26083;BME280;13848;49.018;12.078;2022-12-07T02:44:39;97573.53;;;2.99;78.50
26083;BME280;13848;49.018;12.078;2022-12-07T02:47:08;97563.34;;;3.02;78.73
26083;BME280;13848;49.018;12.078;2022-12-07T02:49:36;97567.00;;;3.01;78.74
26083;BME280;13848;49.018;12.078;2022-12-07T02:52:03;97570.56;;;2.93;78.76
26083;BME280;13848;49.018;12.078;2022-12-07T02:54:29;97567.34;;;2.75;78.87
26083;BME280;13848;49.018;12.078;2022-12-07T02:57:00;97561.53;;;2.72;79.40
26083;BME280;13848;49.018;12.078;2022-12-07T02:59:38;97562.84;;;2.76;79.36
26083;BME280;13848;49.018;12.078;2022-12-07T03:02:18;97564.88;;;2.74;79.82
26083;BME280;13848;49.018;12.078;2022-12-07T03:04:53;97553.91;;;2.69;79.75
26083;BME280;13848;49.018;12.078;2022-12-07T03:07:28;97555.75;;;2.68;80.21
26083;BME280;13848;49.018;12.078;2022-12-07T03:10:03;97553.03;;;2.76;80.05
26083;BME280;13848;49.018;12.078;2022-12-07T03:12:39;97553.03;;;2.76;80.19
26083;BME280;13848;49.018;12.078;2022-12-07T03:15:12;97547.69;;;2.76;80.15
26083;BME280;13848;49.018;12.078;2022-12-07T03:17:44;97552.50;;;2.81;80.30
26083;BME280;13848;49.018;12.078;2022-12-07T03:20:13;97555.13;;;2.58;80.84
26083;BME280;13848;49.018;12.078;2022-12-07T03:22:42;97549.47;;;2.61;80.72
26083;BME280;13848;49.018;12.078;2022-12-07T03:25:11;97553.25;;;2.66;80.68
26083;BME280;13848;49.018;12.078;2022-12-07T03:27:42;97549.72;;;2.74;80.82
26083;BME280;13848;49.018;12.078;2022-12-07T03:30:13;97559.66;;;2.80;80.34
26083;BME280;13848;49.018;12.078;2022-12-07T03:32:44;97549.31;;;2.85;80.42
26083;BME280;13848;49.018;12.078;2022-12-07T03:35:14;97546.13;;;2.90;80.74
26083;BME280;13848;49.018;12.078;2022-12-07T03:37:44;97550.56;;;2.98;80.31
26083;BME280;13848;49.018;12.078;2022-12-07T03:40:14;97559.56;;;2.97;79.71
26083;BME280;13848;49.018;12.078;2022-12-07T03:42:42;97545.28;;;2.89;80.12
26083;BME280;13848;49.018;12.078;2022-12-07T03:45:09;97551.69;;;2.80;80.57
26083;BME280;13848;49.018;12.078;2022-12-07T03:47:44;97553.44;;;2.88;80.43
26083;BME280;13848;49.018;12.078;2022-12-07T03:50:15;97551.28;;;2.91;80.58
26083;BME280;13848;49.018;12.078;2022-12-07T03:52:53;97550.44;;;2.91;80.26
26083;BME280;13848;49.018;12.078;2022-12-07T03:55:24;97546.41;;;2.95;80.21
26083;BME280;13848;49.018;12.078;2022-12-07T03:57:53;97540.56;;;3.00;80.21
26083;BME280;13848;49.018;12.078;2022-12-07T04:00:21;97536.25;;;2.99;80.45
26083;BME280;13848;49.018;12.078;2022-12-07T04:02:52;97535.34;;;2.83;80.28
26083;BME280;13848;49.018;12.078;2022-12-07T04:05:19;97541.34;;;2.85;80.27
26083;BME280;13848;49.018;12.078;2022-12-07T04:07:45;97539.00;;;2.82;80.37
26083;BME280;13848;49.018;12.078;2022-12-07T04:10:11;97547.00;;;2.82;79.55
26083;BME280;13848;49.018;12.078;2022-12-07T04:12:37;97546.97;;;2.90;79.83
26083;BME280;13848;49.018;12.078;2022-12-07T04:15:04;97542.16;;;2.86;80.02
26083;BME280;13848;49.018;12.078;2022-12-07T04:17:30;97555.28;;;2.87;80.07
26083;BME280;13848;49.018;12.078;2022-12-07T04:19:58;97553.16;;;2.83;80.32
26083;BME280;13848;49.018;12.078;2022-12-07T04:22:23;97548.66;;;2.83;80.48
26083;BME280;13848;49.018;12.078;2022-12-07T04:24:49;97540.97;;;2.88;80.49
26083;BME280;13848;49.018;12.078;2022-12-07T04:27:15;97545.66;;;2.86;80.17
26083;BME280;13848;49.018;12.078;2022-12-07T04:29:41;97549.63;;;2.90;80.35
26083;BME280;13848;49.018;12.078;2022-12-07T04:32:07;97538.00;;;2.83;80.56
26083;BME280;13848;49.018;12.078;2022-12-07T04:34:33;97534.81;;;2.88;80.29
26083;BME280;13848;49.018;12.078;2022-12-07T04:37:00;97537.44;;;2.96;80.36
26083;BME280;13848;49.018;12.078;2022-12-07T04:39:28;97529.31;;;2.89;80.23
26083;BME280;13848;49.018;12.078;2022-12-07T04:41:55;97528.03;;;2.85;80.12
26083;BME280;13848;49.018;12.078;2022-12-07T04:44:22;97535.03;;;2.78;80.79
26083;BME280;13848;49.018;12.078;2022-12-07T04:46:49;97533.44;;;2.69;80.65
26083;BME280;13848;49.018;12.078;2022-12-07T04:49:16;97534.09;;;2.71;81.06
26083;BME280;13848;49.018;12.078;2022-12-07T04:51:42;97528.75;;;2.71;80.80
26083;BME280;13848;49.018;12.078;2022-12-07T04:54:10;97525.47;;;2.69;80.73
26083;BME280;13848;49.018;12.078;2022-12-07T04:56:36;97519.53;;;2.82;80.67
26083;BME280;13848;49.018;12.078;2022-12-07T04:59:03;97522.72;;;2.77;80.66
26083;BME280;13848;49.018;12.078;2022-12-07T05:01:30;97523.63;;;2.70;80.80
26083;BME280;13848;49.018;12.078;2022-12-07T05:03:56;97504.75;;;2.56;80.85
26083;BME280;13848;49.018;12.078;2022-12-07T05:06:22;97512.97;;;2.70;80.46
26083;BME280;13848;49.018;12.078;2022-12-07T05:08:48;97507.34;;;2.64;80.68
26083;BME280;13848;49.018;12.078;2022-12-07T05:11:15;97511.44;;;2.75;80.39
26083;BME280;13848;49.018;12.078;2022-12-07T05:13:41;97510.81;;;2.73;80.71
26083;BME280;13848;49.018;12.078;2022-12-07T05:16:07;97509.50;;;2.69;80.48
26083;BME280;13848;49.018;12.078;2022-12-07T05:18:33;97507.47;;;2.71;80.26
26083;BME280;13848;49.018;12.078;2022-12-07T05:20:59;97510.66;;;2.66;80.56
26083;BME280;13848;49.018;12.078;2022-12-07T05:23:25;97512.16;;;2.69;80.08
26083;BME280;13848;49.018;12.078;2022-12-07T05:25:51;97513.19;;;2.60;80.58
26083;BME280;13848;49.018;12.078;2022-12-07T05:28:18;97496.25;;;2.61;80.26
26083;BME280;13848;49.018;12.078;2022-12-07T05:30:45;97493.97;;;2.50;80.74
26083;BME280;13848;49.018;12.078;2022-12-07T05:33:11;97494.16;;;2.17;81.54
26083;BME280;13848;49.018;12.078;2022-12-07T05:35:37;97499.50;;;2.09;81.85
26083;BME280;13848;49.018;12.078;2022-12-07T05:38:03;97499.66;;;2.16;81.45
26083;BME280;13848;49.018;12.078;2022-12-07T05:40:29;97494.28;;;2.24;81.23
26083;BME280;13848;49.018;12.078;2022-12-07T05:42:55;97493.69;;;2.36;80.85
26083;BME280;13848;49.018;12.078;2022-12-07T05:45:22;97487.75;;;2.34;81.29
26083;BME280;13848;49.018;12.078;2022-12-07T05:47:48;97492.53;;;2.39;80.81
26083;BME280;13848;49.018;12.078;2022-12-07T05:50:14;97498.13;;;2.21;80.87
26083;BME280;13848;49.018;12.078;2022-12-07T05:52:40;97505.03;;;2.30;80.33
26083;BME280;13848;49.018;12.078;2022-12-07T05:55:07;97514.97;;;2.36;80.63
26083;BME280;13848;49.018;12.078;2022-12-07T05:57:33;97515.69;;;2.30;80.78
26083;BME280;13848;49.018;12.078;2022-12-07T05:59:59;97521.00;;;2.30;80.69
26083;BME280;13848;49.018;12.078;2022-12-07T06:02:26;97522.13;;;2.05;81.51
26083;BME280;13848;49.018;12.078;2022-12-07T06:04:52;97529.47;;;1.95;81.63
26083;BME280;13848;49.018;12.078;2022-12-07T06:07:18;97526.16;;;1.84;82.19
26083;BME280;13848;49.018;12.078;2022-12-07T06:09:45;97526.81;;;1.95;81.68
26083;BME280;13848;49.018;12.078;2022-12-07T06:12:11;97529.81;;;1.83;81.63
26083;BME280;13848;49.018;12.078;2022-12-07T06:14:38;97523.50;;;1.84;82.11
26083;BME280;13848;49.018;12.078;2022-12-07T06:17:05;97533.81;;;1.79;82.21
26083;BME280;13848;49.018;12.078;2022-12-07T06:19:33;97537.16;;;1.73;82.30
26083;BME280;13848;49.018;12.078;2022-12-07T06:21:59;97534.50;;;1.73;82.24
26083;BME280;13848;49.018;12.078;2022-12-07T06:24:25;97541.28;;;1.84;82.27
26083;BME280;13848;49.018;12.078;2022-12-07T06:26:51;97547.78;;;1.81;82.37
26083;BME280;13848;49.018;12.078;2022-12-07T06:29:18;97542.78;;;1.78;82.14
26083;BME280;13848;49.018;12.078;2022-12-07T06:31:44;97548.78;;;1.72;82.20
26083;BME280;13848;49.018;12.078;2022-12-07T06:34:13;97545.13;;;1.81;81.56
26083;BME280;13848;49.018;12.078;2022-12-07T06:36:40;97543.28;;;1.82;81.79
26083;BME280;13848;49.018;12.078;2022-12-07T06:39:07;97554.25;;;1.79;81.79
26083;BME280;13848;49.018;12.078;2022-12-07T06:41:33;97544.50;;;1.63;82.29
26083;BME280;13848;49.018;12.078;2022-12-07T06:43:59;97532.84;;;1.72;82.22
26083;BME280;13848;49.018;12.078;2022-12-07T06:46:25;97537.50;;;1.70;81.93
26083;BME280;13848;49.018;12.078;2022-12-07T06:48:51;97544.16;;;1.74;81.89
26083;BME280;13848;49.018;12.078;2022-12-07T06:51:18;97550.44;;;1.81;81.87
26083;BME280;13848;49.018;12.078;2022-12-07T06:53:45;97554.09;;;1.80;81.07
26083;BME280;13848;49.018;12.078;2022-12-07T06:56:11;97564.38;;;1.83;81.55
26083;BME280;13848;49.018;12.078;2022-12-07T06:58:39;97555.72;;;1.90;81.21
26083;BME280;13848;49.018;12.078;2022-12-07T07:01:09;97559.38;;;1.89;81.32
26083;BME280;13848;49.018;12.078;2022-12-07T07:03:35;97565.81;;;2.02;81.09
26083;BME280;13848;49.018;12.078;2022-12-07T07:06:01;97561.00;;;2.06;80.90
26083;BME280;13848;49.018;12.078;2022-12-07T07:08:26;97571.31;;;2.01;81.80
26083;BME280;13848;49.018;12.078;2022-12-07T07:10:54;97568.94;;;2.14;81.80
26083;BME280;13848;49.018;12.078;2022-12-07T07:13:20;97559.94;;;2.23;81.22
26083;BME280;13848;49.018;12.078;2022-12-07T07:15:46;97556.97;;;2.26;81.41
26083;BME280;13848;49.018;12.078;2022-12-07T07:18:12;97553.97;;;2.21;80.94
26083;BME280;13848;49.018;12.078;2022-12-07T07:20:38;97560.03;;;1.99;81.13
26083;BME280;13848;49.018;12.078;2022-12-07T07:23:04;97563.06;;;1.88;81.47
26083;BME280;13848;49.018;12.078;2022-12-07T07:25:31;97567.03;;;1.92;81.80
26083;BME280;13848;49.018;12.078;2022-12-07T07:27:58;97561.41;;;1.78;81.63
26083;BME280;13848;49.018;12.078;2022-12-07T07:30:25;97554.81;;;1.42;82.77
26083;BME280;13848;49.018;12.078;2022-12-07T07:32:51;97554.97;;;1.32;83.85
26083;BME280;13848;49.018;12.078;2022-12-07T07:35:17;97545.19;;;1.24;83.72
26083;BME280;13848;49.018;12.078;2022-12-07T07:37:43;97549.19;;;1.28;83.97
26083;BME280;13848;49.018;12.078;2022-12-07T07:40:10;97558.13;;;1.52;83.77
26083;BME280;13848;49.018;12.078;2022-12-07T07:42:36;97571.38;;;1.76;82.97
26083;BME280;13848;49.018;12.078;2022-12-07T07:45:04;97585.94;;;1.97;82.67
26083;BME280;13848;49.018;12.078;2022-12-07T07:47:30;97573.78;;;2.02;82.35
26083;BME280;13848;49.018;12.078;2022-12-07T07:49:56;97570.25;;;2.18;82.19
26083;BME280;13848;49.018;12.078;2022-12-07T07:52:22;97574.44;;;2.21;81.61
26083;BME280;13848;49.018;12.078;2022-12-07T07:54:48;97567.22;;;2.29;81.29
26083;BME280;13848;49.018;12.078;2022-12-07T07:57:14;97570.69;;;2.38;80.51
26083;BME280;13848;49.018;12.078;2022-12-07T07:59:41;97584.97;;;2.37;80.75
26083;BME280;13848;49.018;12.078;2022-12-07T08:02:14;97578.44;;;2.56;81.09
26083;BME280;13848;49.018;12.078;2022-12-07T08:04:40;97567.31;;;2.52;80.33
26083;BME280;13848;49.018;12.078;2022-12-07T08:07:06;97570.16;;;2.51;80.21
26083;BME280;13848;49.018;12.078;2022-12-07T08:09:32;97544.19;;;2.53;80.13
26083;BME280;13848;49.018;12.078;2022-12-07T08:11:58;97574.81;;;2.80;80.00
26083;BME280;13848;49.018;12.078;2022-12-07T08:14:24;97587.25;;;3.10;79.35
26083;BME280;13848;49.018;12.078;2022-12-07T08:16:50;97579.38;;;3.17;78.73
26083;BME280;13848;49.018;12.078;2022-12-07T08:19:17;97571.69;;;2.99;78.44
26083;BME280;13848;49.018;12.078;2022-12-07T08:21:43;97576.78;;;3.09;78.36
26083;BME280;13848;49.018;12.078;2022-12-07T08:24:09;97577.13;;;3.06;77.26
26083;BME280;13848;49.018;12.078;2022-12-07T08:26:35;97573.03;;;3.18;78.05
26083;BME280;13848;49.018;12.078;2022-12-07T08:29:01;97573.72;;;3.20;78.10
26083;BME280;13848;49.018;12.078;2022-12-07T08:31:27;97584.25;;;3.13;76.97
26083;BME280;13848;49.018;12.078;2022-12-07T08:33:53;97586.66;;;3.23;77.25
26083;BME280;13848;49.018;12.078;2022-12-07T08:36:21;97587.25;;;3.33;77.21
26083;BME280;13848;49.018;12.078;2022-12-07T08:38:47;97589.84;;;3.41;76.69
26083;BME280;13848;49.018;12.078;2022-12-07T08:41:13;97580.91;;;3.34;76.87
26083;BME280;13848;49.018;12.078;2022-12-07T08:43:39;97586.19;;;3.42;76.31
26083;BME280;13848;49.018;12.078;2022-12-07T08:46:09;97593.28;;;3.50;77.07
26083;BME280;13848;49.018;12.078;2022-12-07T08:48:38;97593.19;;;3.43;75.91
26083;BME280;13848;49.018;12.078;2022-12-07T08:51:05;97582.94;;;3.32;76.27
26083;BME280;13848;49.018;12.078;2022-12-07T08:53:33;97589.44;;;3.30;76.04
26083;BME280;13848;49.018;12.078;2022-12-07T08:56:01;97589.16;;;3.25;76.13
26083;BME280;13848;49.018;12.078;2022-12-07T08:58:27;97587.34;;;3.25;75.60
26083;BME280;13848;49.018;12.078;2022-12-07T09:00:53;97591.66;;;3.26;76.24
26083;BME280;13848;49.018;12.078;2022-12-07T09:03:19;97592.59;;;3.10;75.78
26083;BME280;13848;49.018;12.078;2022-12-07T09:05:45;97591.66;;;3.26;75.93
26083;BME280;13848;49.018;12.078;2022-12-07T09:08:12;97593.59;;;3.32;75.63
26083;BME280;13848;49.018;12.078;2022-12-07T09:10:39;97598.69;;;3.19;75.21
26083;BME280;13848;49.018;12.078;2022-12-07T09:13:05;97603.72;;;3.14;75.53
26083;BME280;13848;49.018;12.078;2022-12-07T09:15:31;97598.53;;;3.20;75.63
26083;BME280;13848;49.018;12.078;2022-12-07T09:17:57;97594.25;;;3.34;75.45
26083;BME280;13848;49.018;12.078;2022-12-07T09:20:23;97598.16;;;3.24;75.49
26083;BME280;13848;49.018;12.078;2022-12-07T09:22:49;97598.00;;;3.25;75.44
26083;BME280;13848;49.018;12.078;2022-12-07T09:25:15;97598.25;;;3.30;75.37
26083;BME280;13848;49.018;12.078;2022-12-07T09:27:43;97598.66;;;3.42;74.94
26083;BME280;13848;49.018;12.078;2022-12-07T09:30:09;97585.59;;;3.55;76.13
26083;BME280;13848;49.018;12.078;2022-12-07T09:32:35;97593.63;;;3.47;75.62
26083;BME280;13848;49.018;12.078;2022-12-07T09:35:01;97589.72;;;3.58;74.76
26083;BME280;13848;49.018;12.078;2022-12-07T09:37:27;97595.44;;;3.55;74.24
26083;BME280;13848;49.018;12.078;2022-12-07T09:39:53;97586.75;;;3.15;74.36
26083;BME280;13848;49.018;12.078;2022-12-07T09:42:27;97590.34;;;3.22;75.67
26083;BME280;13848;49.018;12.078;2022-12-07T09:44:56;97582.94;;;3.09;75.19
26083;BME280;13848;49.018;12.078;2022-12-07T09:47:41;97592.25;;;3.36;75.61
26083;BME280;13848;49.018;12.078;2022-12-07T09:50:13;97588.56;;;3.37;74.79
26083;BME280;13848;49.018;12.078;2022-12-07T09:52:40;97581.09;;;3.33;74.91
26083;BME280;13848;49.018;12.078;2022-12-07T09:55:12;97581.69;;;3.43;74.76
26083;BME280;13848;49.018;12.078;2022-12-07T09:57:38;97585.28;;;3.50;74.99
26083;BME280;13848;49.018;12.078;2022-12-07T10:00:12;97577.53;;;3.40;74.90
26083;BME280;13848;49.018;12.078;2022-12-07T10:02:40;97577.91;;;3.37;74.55
26083;BME280;13848;49.018;12.078;2022-12-07T10:05:09;97579.19;;;3.41;74.64
26083;BME280;13848;49.018;12.078;2022-12-07T10:07:37;97584.53;;;3.18;74.51
26083;BME280;13848;49.018;12.078;2022-12-07T10:10:04;97567.38;;;3.21;74.74
26083;BME280;13848;49.018;12.078;2022-12-07T10:12:52;97561.16;;;3.29;74.94
26083;BME280;13848;49.018;12.078;2022-12-07T10:15:20;97558.53;;;3.43;74.96
26083;BME280;13848;49.018;12.078;2022-12-07T10:17:49;97560.00;;;3.46;74.49
26083;BME280;13848;49.018;12.078;2022-12-07T10:20:22;97552.09;;;3.53;74.02
26083;BME280;13848;49.018;12.078;2022-12-07T10:22:56;97548.72;;;3.44;73.32
26083;BME280;13848;49.018;12.078;2022-12-07T10:25:25;97541.66;;;3.28;73.95
26083;BME280;13848;49.018;12.078;2022-12-07T10:28:17;97536.00;;;3.31;74.15
26083;BME280;13848;49.018;12.078;2022-12-07T10:30:51;97534.56;;;3.43;73.57
26083;BME280;13848;49.018;12.078;2022-12-07T10:33:38;97536.56;;;3.41;73.65
26083;BME280;13848;49.018;12.078;2022-12-07T10:36:18;97527.81;;;3.33;73.37
26083;BME280;13848;49.018;12.078;2022-12-07T10:38:46;97524.13;;;3.34;73.80
26083;BME280;13848;49.018;12.078;2022-12-07T10:41:12;97519.41;;;3.44;72.84
26083;BME280;13848;49.018;12.078;2022-12-07T10:43:50;97521.66;;;3.32;73.90
26083;BME280;13848;49.018;12.078;2022-12-07T10:46:42;97523.16;;;3.50;74.07
26083;BME280;13848;49.018;12.078;2022-12-07T10:49:36;97517.66;;;3.51;72.63
26083;BME280;13848;49.018;12.078;2022-12-07T10:52:09;97511.84;;;3.47;72.94
26083;BME280;13848;49.018;12.078;2022-12-07T10:54:44;97513.53;;;3.49;73.03
26083;BME280;13848;49.018;12.078;2022-12-07T10:57:26;97521.13;;;3.52;72.96
26083;BME280;13848;49.018;12.078;2022-12-07T11:00:02;97505.59;;;3.40;72.65
26083;BME280;13848;49.018;12.078;2022-12-07T11:02:46;97523.75;;;3.60;72.40
26083;BME280;13848;49.018;12.078;2022-12-07T11:05:24;97511.69;;;3.64;71.96
26083;BME280;13848;49.018;12.078;2022-12-07T11:08:00;97506.06;;;3.59;72.50
26083;BME280;13848;49.018;12.078;2022-12-07T11:10:36;97503.78;;;3.70;72.12
26083;BME280;13848;49.018;12.078;2022-12-07T11:13:29;97501.88;;;3.79;71.76
26083;BME280;13848;49.018;12.078;2022-12-07T11:16:13;97504.88;;;4.20;73.09
26083;BME280;13848;49.018;12.078;2022-12-07T11:18:59;97489.19;;;3.81;70.72
26083;BME280;13848;49.018;12.078;2022-12-07T11:21:33;97484.94;;;3.87;70.83
26083;BME280;13848;49.018;12.078;2022-12-07T11:24:10;97487.16;;;3.83;71.56
26083;BME280;13848;49.018;12.078;2022-12-07T11:26:58;97486.59;;;3.88;69.99
26083;BME280;13848;49.018;12.078;2022-12-07T11:32:22;97492.69;;;3.96;71.43
26083;BME280;13848;49.018;12.078;2022-12-07T11:35:00;97482.56;;;3.92;70.44
26083;BME280;13848;49.018;12.078;2022-12-07T11:37:32;97482.09;;;3.88;70.68
26083;BME280;13848;49.018;12.078;2022-12-07T11:40:02;97483.19;;;3.94;70.77
26083;BME280;13848;49.018;12.078;2022-12-07T11:42:31;97480.38;;;3.95;70.30
26083;BME280;13848;49.018;12.078;2022-12-07T11:45:02;97481.72;;;3.91;69.39
26083;BME280;13848;49.018;12.078;2022-12-07T11:47:35;97475.75;;;3.89;70.09
26083;BME280;13848;49.018;12.078;2022-12-07T11:50:23;97475.38;;;3.92;69.29
26083;BME280;13848;49.018;12.078;2022-12-07T11:52:54;97481.84;;;3.83;69.69
26083;BME280;13848;49.018;12.078;2022-12-07T11:55:26;97478.44;;;3.89;70.30
26083;BME280;13848;49.018;12.078;2022-12-07T11:58:00;97482.56;;;3.77;70.25
26083;BME280;13848;49.018;12.078;2022-12-07T12:00:28;97472.09;;;3.90;70.55
26083;BME280;13848;49.018;12.078;2022-12-07T12:02:59;97456.44;;;3.87;70.51
26083;BME280;13848;49.018;12.078;2022-12-07T12:05:28;97472.72;;;4.07;69.48
26083;BME280;13848;49.018;12.078;2022-12-07T12:08:03;97470.72;;;3.94;69.37
26083;BME280;13848;49.018;12.078;2022-12-07T12:10:40;97474.44;;;4.15;70.38
26083;BME280;13848;49.018;12.078;2022-12-07T12:13:25;97459.19;;;4.09;69.21
26083;BME280;13848;49.018;12.078;2022-12-07T12:16:04;97479.06;;;4.06;69.96
26083;BME280;13848;49.018;12.078;2022-12-07T12:18:44;97465.19;;;3.96;69.54
26083;BME280;13848;49.018;12.078;2022-12-07T12:21:19;97465.47;;;4.01;70.13
26083;BME280;13848;49.018;12.078;2022-12-07T12:23:48;97463.88;;;4.07;70.00
26083;BME280;13848;49.018;12.078;2022-12-07T12:26:17;97473.38;;;3.94;70.49
26083;BME280;13848;49.018;12.078;2022-12-07T12:28:52;97462.03;;;3.92;71.43
26083;BME280;13848;49.018;12.078;2022-12-07T12:31:33;97460.66;;;3.96;71.91
26083;BME280;13848;49.018;12.078;2022-12-07T12:34:01;97465.72;;;4.06;72.06
26083;BME280;13848;49.018;12.078;2022-12-07T12:36:44;97465.81;;;4.13;72.05
26083;BME280;13848;49.018;12.078;2022-12-07T12:39:12;97444.28;;;3.99;72.10
26083;BME280;13848;49.018;12.078;2022-12-07T12:41:58;97451.09;;;4.02;73.17
26083;BME280;13848;49.018;12.078;2022-12-07T12:47:51;97453.16;;;4.58;74.00
26083;BME280;13848;49.018;12.078;2022-12-07T12:50:20;97453.19;;;4.21;72.94
26083;BME280;13848;49.018;12.078;2022-12-07T12:53:12;97444.94;;;4.02;72.92
26083;BME280;13848;49.018;12.078;2022-12-07T12:58:40;97451.66;;;3.97;73.57
26083;BME280;13848;49.018;12.078;2022-12-07T13:04:47;97450.00;;;3.96;73.10
26083;BME280;13848;49.018;12.078;2022-12-07T13:07:52;97440.69;;;4.07;73.69
26083;BME280;13848;49.018;12.078;2022-12-07T13:10:25;97435.09;;;3.87;73.37
26083;BME280;13848;49.018;12.078;2022-12-07T13:12:57;97437.25;;;3.77;73.39
26083;BME280;13848;49.018;12.078;2022-12-07T13:15:37;97433.63;;;3.99;73.27
26083;BME280;13848;49.018;12.078;2022-12-07T13:18:35;97427.53;;;4.06;73.02
26083;BME280;13848;49.018;12.078;2022-12-07T13:21:01;97431.13;;;3.98;72.84
26083;BME280;13848;49.018;12.078;2022-12-07T13:23:32;97431.53;;;3.95;73.46
26083;BME280;13848;49.018;12.078;2022-12-07T13:26:09;97429.03;;;3.93;73.84
26083;BME280;13848;49.018;12.078;2022-12-07T13:28:39;97427.03;;;3.95;73.26